This is the latest recevied weather packets stored in our database for station/object N4HAC. If no packets are shown the sender has not sent any weather packets the latest 1 day(s).
| Time | Temp. | Humidity | Pressure | Rain* | Wind** | Luminosity | Snow |
|---|---|---|---|---|---|---|---|
| 1778032221 | 20.56° C | 46% | 1005.2 hPa | 0 mm | 3.58 m/s, 149° | 0 W/m² | - |
| 1778031919 | 21.11° C | 45% | 1005.2 hPa | 0 mm | 3.13 m/s, 134° | 0 W/m² | - |
| 1778031615 | 21.11° C | 44% | 1005.2 hPa | 0 mm | 2.68 m/s, 141° | 0 W/m² | - |
| 1778031313 | 21.11° C | 44% | 1005.2 hPa | 0 mm | 2.68 m/s, 134° | 0 W/m² | - |
| 1778031009 | 21.11° C | 44% | 1004.9 hPa | 0 mm | 2.24 m/s, 143° | 0 W/m² | - |
| 1778030705 | 21.11° C | 43% | 1004.9 hPa | 0 mm | 2.68 m/s, 146° | 0 W/m² | - |
| 1778030403 | 21.11° C | 43% | 1004.8 hPa | 0 mm | 2.24 m/s, 152° | 0 W/m² | - |
| 1778030100 | 21.11° C | 43% | 1005.1 hPa | 0 mm | 2.68 m/s, 141° | 0 W/m² | - |
| 1778029796 | 21.67° C | 42% | 1004.8 hPa | 0 mm | 3.58 m/s, 144° | 0 W/m² | - |
| 1778029496 | 21.67° C | 43% | 1004.6 hPa | 0 mm | 2.68 m/s, 149° | 0 W/m² | - |
| 1778029191 | 21.67° C | 41% | 1004.7 hPa | 0 mm | 2.68 m/s, 139° | 0 W/m² | - |
| 1778028889 | 21.67° C | 41% | 1004.5 hPa | 0 mm | 3.13 m/s, 136° | 0 W/m² | - |
| 1778028584 | 22.22° C | 40% | 1004.5 hPa | 0 mm | 2.24 m/s, 141° | 0 W/m² | - |
| 1778028282 | 22.22° C | 39% | 1004.4 hPa | 0 mm | 2.24 m/s, 139° | 0 W/m² | - |
| 1778027978 | 22.78° C | 37% | 1004.4 hPa | 0 mm | 3.13 m/s, 140° | 0 W/m² | - |
| 1778027675 | 22.78° C | 37% | 1004.5 hPa | 0 mm | 2.68 m/s, 142° | 0 W/m² | - |
| 1778027371 | 23.33° C | 36% | 1004.3 hPa | 0 mm | 4.02 m/s, 132° | 0 W/m² | - |
| 1778027067 | 23.33° C | 35% | 1004.3 hPa | 0 mm | 4.02 m/s, 142° | 0 W/m² | - |
| 1778026763 | 23.33° C | 35% | 1004.1 hPa | 0 mm | 5.81 m/s, 136° | 1 W/m² | - |
| 1778026460 | 23.33° C | 34% | 1004.2 hPa | 0 mm | 4.47 m/s, 153° | 1 W/m² | - |
| 1778026157 | 23.89° C | 34% | 1004.1 hPa | 0 mm | 4.92 m/s, 142° | 2 W/m² | - |
| 1778025855 | 23.89° C | 34% | 1004 hPa | 0 mm | 4.47 m/s, 135° | 4 W/m² | - |
| 1778025551 | 24.44° C | 34% | 1003.7 hPa | 0 mm | 3.58 m/s, 152° | 7 W/m² | - |
| 1778025250 | 24.44° C | 33% | 1003.8 hPa | 0 mm | 5.36 m/s, 141° | 10 W/m² | - |
| 1778024946 | 24.44° C | 33% | 1003.9 hPa | 0 mm | 4.92 m/s, 149° | 16 W/m² | - |
* Rain latest hour (hover to see other rain measurements)
** Current wind speed in m/s (hover to see current wind gust speed)